sensor_id;sensor_type;location;lat;lon;timestamp;pressure;altitude;pressure_sealevel;temperature;humidity
54236;BME280;40151;43.606;1.472;2023-02-13T00:01:02;100878.75;;;14.19;47.26
54236;BME280;40151;43.606;1.472;2023-02-13T00:03:27;100882.22;;;14.19;47.43
54236;BME280;40151;43.606;1.472;2023-02-13T00:05:53;100884.00;;;14.17;47.35
54236;BME280;40151;43.606;1.472;2023-02-13T00:08:18;100889.25;;;14.17;47.37
54236;BME280;40151;43.606;1.472;2023-02-13T00:10:43;100881.38;;;14.19;47.38
54236;BME280;40151;43.606;1.472;2023-02-13T00:13:09;100879.59;;;14.18;47.21
54236;BME280;40151;43.606;1.472;2023-02-13T00:15:34;100879.66;;;14.15;47.35
54236;BME280;40151;43.606;1.472;2023-02-13T00:18:00;100882.28;;;14.16;47.19
54236;BME280;40151;43.606;1.472;2023-02-13T00:20:26;100878.78;;;14.14;47.37
54236;BME280;40151;43.606;1.472;2023-02-13T00:22:51;100883.16;;;14.14;47.22
54236;BME280;40151;43.606;1.472;2023-02-13T00:25:17;100886.63;;;14.16;47.23
54236;BME280;40151;43.606;1.472;2023-02-13T00:27:42;100883.16;;;14.15;47.22
54236;BME280;40151;43.606;1.472;2023-02-13T00:30:08;100887.53;;;14.13;47.35
54236;BME280;40151;43.606;1.472;2023-02-13T00:32:33;100882.28;;;14.13;47.25
54236;BME280;40151;43.606;1.472;2023-02-13T00:34:59;100882.28;;;14.13;47.30
54236;BME280;40151;43.606;1.472;2023-02-13T00:37:24;100876.13;;;14.14;47.22
54236;BME280;40151;43.606;1.472;2023-02-13T00:39:50;100878.78;;;14.14;47.45
54236;BME280;40151;43.606;1.472;2023-02-13T00:42:15;100875.31;;;14.12;47.19
54236;BME280;40151;43.606;1.472;2023-02-13T00:44:41;100878.81;;;14.11;47.25
54236;BME280;40151;43.606;1.472;2023-02-13T00:47:06;100876.19;;;14.13;47.28
54236;BME280;40151;43.606;1.472;2023-02-13T00:49:32;100874.41;;;14.12;47.36
54236;BME280;40151;43.606;1.472;2023-02-13T00:51:57;100880.53;;;14.12;47.47
54236;BME280;40151;43.606;1.472;2023-02-13T00:54:22;100876.13;;;14.14;47.25
54236;BME280;40151;43.606;1.472;2023-02-13T00:56:48;100884.03;;;14.14;47.27
54236;BME280;40151;43.606;1.472;2023-02-13T00:59:14;100879.72;;;14.10;47.20
54236;BME280;40151;43.606;1.472;2023-02-13T01:01:40;100885.81;;;14.12;47.38
54236;BME280;40151;43.606;1.472;2023-02-13T01:04:06;100880.53;;;14.12;47.12
54236;BME280;40151;43.606;1.472;2023-02-13T01:06:31;100879.66;;;14.15;47.20
54236;BME280;40151;43.606;1.472;2023-02-13T01:08:57;100889.31;;;14.11;47.23
54236;BME280;40151;43.606;1.472;2023-02-13T01:11:22;100889.31;;;14.11;47.24
54236;BME280;40151;43.606;1.472;2023-02-13T01:13:48;100887.56;;;14.10;47.18
54236;BME280;40151;43.606;1.472;2023-02-13T01:16:13;100882.31;;;14.10;47.11
54236;BME280;40151;43.606;1.472;2023-02-13T01:18:42;100891.94;;;14.11;47.18
54236;BME280;40151;43.606;1.472;2023-02-13T01:21:12;100893.69;;;14.12;47.17
54236;BME280;40151;43.606;1.472;2023-02-13T01:23:39;100891.94;;;14.11;47.16
54236;BME280;40151;43.606;1.472;2023-02-13T01:26:06;100892.84;;;14.10;47.08
54236;BME280;40151;43.606;1.472;2023-02-13T01:28:33;100906.81;;;14.12;47.17
54236;BME280;40151;43.606;1.472;2023-02-13T01:30:58;100905.97;;;14.07;47.30
54236;BME280;40151;43.606;1.472;2023-02-13T01:33:26;100902.44;;;14.08;47.17
54236;BME280;40151;43.606;1.472;2023-02-13T01:35:53;100899.81;;;14.08;47.14
54236;BME280;40151;43.606;1.472;2023-02-13T01:38:18;100896.34;;;14.06;47.32
54236;BME280;40151;43.606;1.472;2023-02-13T01:40:49;100908.63;;;14.04;47.53
54236;BME280;40151;43.606;1.472;2023-02-13T01:43:15;100905.97;;;14.08;47.12
54236;BME280;40151;43.606;1.472;2023-02-13T01:45:41;100906.84;;;14.06;47.19
54236;BME280;40151;43.606;1.472;2023-02-13T01:48:17;100900.72;;;14.07;47.17
54236;BME280;40151;43.606;1.472;2023-02-13T01:50:57;100899.88;;;14.03;47.20
54236;BME280;40151;43.606;1.472;2023-02-13T01:53:59;100899.88;;;14.05;47.30
54236;BME280;40151;43.606;1.472;2023-02-13T01:56:44;100907.75;;;14.06;47.19
54236;BME280;40151;43.606;1.472;2023-02-13T01:59:23;100901.59;;;14.06;47.07
54236;BME280;40151;43.606;1.472;2023-02-13T02:01:51;100900.75;;;14.02;47.15
54236;BME280;40151;43.606;1.472;2023-02-13T02:04:21;100903.41;;;14.01;47.22
54236;BME280;40151;43.606;1.472;2023-02-13T02:07:03;100906.84;;;14.06;47.27
54236;BME280;40151;43.606;1.472;2023-02-13T02:09:33;100906.91;;;14.00;47.24
54236;BME280;40151;43.606;1.472;2023-02-13T02:12:09;100902.50;;;14.00;47.34
54236;BME280;40151;43.606;1.472;2023-02-13T02:14:39;100905.13;;;14.03;47.23
54236;BME280;40151;43.606;1.472;2023-02-13T02:17:05;100904.28;;;14.00;47.35
54236;BME280;40151;43.606;1.472;2023-02-13T02:28:07;100906.91;;;14.00;47.40
54236;BME280;40151;43.606;1.472;2023-02-13T02:33:16;100908.69;;;13.98;47.31
54236;BME280;40151;43.606;1.472;2023-02-13T02:55:53;100918.31;;;13.97;47.32
54236;BME280;40151;43.606;1.472;2023-02-13T02:58:24;100926.16;;;13.99;47.21
54236;BME280;40151;43.606;1.472;2023-02-13T03:01:17;100917.41;;;13.98;47.27
54236;BME280;40151;43.606;1.472;2023-02-13T03:04:04;100919.19;;;13.98;47.29
54236;BME280;40151;43.606;1.472;2023-02-13T03:06:52;100919.19;;;13.98;47.21
54236;BME280;40151;43.606;1.472;2023-02-13T03:09:26;100915.69;;;13.95;47.32
54236;BME280;40151;43.606;1.472;2023-02-13T03:12:13;100920.09;;;13.95;47.14
54236;BME280;40151;43.606;1.472;2023-02-13T03:14:59;100913.06;;;13.95;47.29
54236;BME280;40151;43.606;1.472;2023-02-13T03:17:25;100913.94;;;13.93;47.20
54236;BME280;40151;43.606;1.472;2023-02-13T03:20:35;100909.59;;;13.93;47.21
54236;BME280;40151;43.606;1.472;2023-02-13T03:26:49;100913.94;;;13.94;47.31
54236;BME280;40151;43.606;1.472;2023-02-13T03:29:31;100915.72;;;13.92;46.92
54236;BME280;40151;43.606;1.472;2023-02-13T03:32:29;100915.69;;;13.94;47.08
54236;BME280;40151;43.606;1.472;2023-02-13T03:38:15;100914.84;;;13.93;47.15
54236;BME280;40151;43.606;1.472;2023-02-13T03:41:03;100913.09;;;13.92;47.15
54236;BME280;40151;43.606;1.472;2023-02-13T03:46:18;100907.84;;;13.91;46.93
54236;BME280;40151;43.606;1.472;2023-02-13T03:48:45;100917.47;;;13.90;47.08
54236;BME280;40151;43.606;1.472;2023-02-13T03:54:06;100920.97;;;13.89;47.17
54236;BME280;40151;43.606;1.472;2023-02-13T03:56:38;100921.84;;;13.91;47.09
54236;BME280;40151;43.606;1.472;2023-02-13T03:59:29;100919.25;;;13.88;47.15
54236;BME280;40151;43.606;1.472;2023-02-13T04:02:13;100928.00;;;13.89;47.05
54236;BME280;40151;43.606;1.472;2023-02-13T04:04:49;100922.72;;;13.90;46.89
54236;BME280;40151;43.606;1.472;2023-02-13T04:07:17;100923.59;;;13.89;47.13
54236;BME280;40151;43.606;1.472;2023-02-13T04:09:59;100929.75;;;13.85;47.17
54236;BME280;40151;43.606;1.472;2023-02-13T04:15:03;100935.00;;;13.85;47.14
54236;BME280;40151;43.606;1.472;2023-02-13T04:17:36;100937.63;;;13.87;47.16
54236;BME280;40151;43.606;1.472;2023-02-13T04:20:04;100945.50;;;13.88;46.96
54236;BME280;40151;43.606;1.472;2023-02-13T04:22:30;100949.00;;;13.87;47.03
54236;BME280;40151;43.606;1.472;2023-02-13T04:24:55;100942.03;;;13.86;47.08
54236;BME280;40151;43.606;1.472;2023-02-13T04:27:24;100945.50;;;13.88;46.91
54236;BME280;40151;43.606;1.472;2023-02-13T04:29:51;100945.50;;;13.85;47.13
54236;BME280;40151;43.606;1.472;2023-02-13T04:32:17;100949.00;;;13.87;46.97
54236;BME280;40151;43.606;1.472;2023-02-13T04:34:42;100944.63;;;13.86;46.97
54236;BME280;40151;43.606;1.472;2023-02-13T04:37:08;100943.75;;;13.84;47.08
54236;BME280;40151;43.606;1.472;2023-02-13T04:39:34;100946.38;;;13.82;47.19
54236;BME280;40151;43.606;1.472;2023-02-13T04:41:59;100945.53;;;13.82;46.90
54236;BME280;40151;43.606;1.472;2023-02-13T04:44:25;100945.53;;;13.82;47.12
54236;BME280;40151;43.606;1.472;2023-02-13T04:46:50;100945.53;;;13.82;47.12
54236;BME280;40151;43.606;1.472;2023-02-13T04:49:15;100950.78;;;13.82;47.09
54236;BME280;40151;43.606;1.472;2023-02-13T04:51:41;100945.53;;;13.82;47.06
54236;BME280;40151;43.606;1.472;2023-02-13T04:54:06;100952.53;;;13.83;47.14
54236;BME280;40151;43.606;1.472;2023-02-13T04:56:32;100953.41;;;13.80;47.04
54236;BME280;40151;43.606;1.472;2023-02-13T04:58:57;100956.06;;;13.77;47.24
54236;BME280;40151;43.606;1.472;2023-02-13T05:01:22;100962.13;;;13.82;47.15
54236;BME280;40151;43.606;1.472;2023-02-13T05:03:48;100962.16;;;13.79;47.11
54236;BME280;40151;43.606;1.472;2023-02-13T05:06:13;100961.28;;;13.79;47.09
54236;BME280;40151;43.606;1.472;2023-02-13T05:08:39;100954.31;;;13.78;47.18
54236;BME280;40151;43.606;1.472;2023-02-13T05:11:05;100970.03;;;13.78;47.06
54236;BME280;40151;43.606;1.472;2023-02-13T05:13:31;100957.81;;;13.77;47.23
54236;BME280;40151;43.606;1.472;2023-02-13T05:15:56;100957.81;;;13.77;47.28
54236;BME280;40151;43.606;1.472;2023-02-13T05:18:22;100961.28;;;13.79;47.08
54236;BME280;40151;43.606;1.472;2023-02-13T05:20:47;100965.69;;;13.77;47.02
54236;BME280;40151;43.606;1.472;2023-02-13T05:23:33;100963.06;;;13.77;47.10
54236;BME280;40151;43.606;1.472;2023-02-13T05:25:58;100960.44;;;13.77;47.16
54236;BME280;40151;43.606;1.472;2023-02-13T05:28:24;100963.91;;;13.79;47.19
54236;BME280;40151;43.606;1.472;2023-02-13T05:31:08;100966.56;;;13.76;47.27
54236;BME280;40151;43.606;1.472;2023-02-13T05:33:33;100963.06;;;13.74;47.15
54236;BME280;40151;43.606;1.472;2023-02-13T05:35:58;100968.31;;;13.75;47.07
54236;BME280;40151;43.606;1.472;2023-02-13T05:38:24;100960.44;;;13.75;47.07
54236;BME280;40151;43.606;1.472;2023-02-13T05:40:49;100959.59;;;13.75;47.13
54236;BME280;40151;43.606;1.472;2023-02-13T05:43:15;100962.19;;;13.76;46.96
54236;BME280;40151;43.606;1.472;2023-02-13T05:45:40;100956.09;;;13.73;47.15
54236;BME280;40151;43.606;1.472;2023-02-13T05:48:05;100960.44;;;13.74;47.05
54236;BME280;40151;43.606;1.472;2023-02-13T05:50:31;100971.81;;;13.73;46.78
54236;BME280;40151;43.606;1.472;2023-02-13T05:52:56;100964.84;;;13.75;47.10
54236;BME280;40151;43.606;1.472;2023-02-13T05:55:22;100966.56;;;13.76;47.07
54236;BME280;40151;43.606;1.472;2023-02-13T05:57:47;100966.59;;;13.71;47.10
54236;BME280;40151;43.606;1.472;2023-02-13T06:00:13;100968.31;;;13.74;47.07
54236;BME280;40151;43.606;1.472;2023-02-13T06:02:39;100969.25;;;13.69;47.18
54236;BME280;40151;43.606;1.472;2023-02-13T06:05:04;100964.84;;;13.72;47.09
54236;BME280;40151;43.606;1.472;2023-02-13T06:07:30;100966.56;;;13.73;47.15
54236;BME280;40151;43.606;1.472;2023-02-13T06:09:55;100967.47;;;13.70;47.04
54236;BME280;40151;43.606;1.472;2023-02-13T06:12:23;100975.34;;;13.72;47.06
54236;BME280;40151;43.606;1.472;2023-02-13T06:14:49;100966.63;;;13.66;47.13
54236;BME280;40151;43.606;1.472;2023-02-13T06:17:14;100968.34;;;13.67;47.12
54236;BME280;40151;43.606;1.472;2023-02-13T06:19:40;100967.47;;;13.70;47.23
54236;BME280;40151;43.606;1.472;2023-02-13T06:22:05;100974.47;;;13.69;47.14
54236;BME280;40151;43.606;1.472;2023-02-13T06:24:30;100970.13;;;13.65;47.19
54236;BME280;40151;43.606;1.472;2023-02-13T06:26:56;100969.25;;;13.66;47.08
54236;BME280;40151;43.606;1.472;2023-02-13T06:29:22;100969.25;;;13.66;47.03
54236;BME280;40151;43.606;1.472;2023-02-13T06:31:47;100968.34;;;13.67;47.02
54236;BME280;40151;43.606;1.472;2023-02-13T06:34:13;100970.13;;;13.65;47.13
54236;BME280;40151;43.606;1.472;2023-02-13T06:36:38;100971.00;;;13.66;47.09
54236;BME280;40151;43.606;1.472;2023-02-13T06:39:05;100977.16;;;13.63;47.21
54236;BME280;40151;43.606;1.472;2023-02-13T06:41:31;100971.00;;;13.64;47.21
54236;BME280;40151;43.606;1.472;2023-02-13T06:43:56;100966.66;;;13.63;47.11
54236;BME280;40151;43.606;1.472;2023-02-13T06:46:22;100979.78;;;13.63;47.26
54236;BME280;40151;43.606;1.472;2023-02-13T06:48:47;100982.38;;;13.63;47.18
54236;BME280;40151;43.606;1.472;2023-02-13T06:51:12;100980.63;;;13.64;47.12
54236;BME280;40151;43.606;1.472;2023-02-13T06:53:38;100980.66;;;13.62;47.22
54236;BME280;40151;43.606;1.472;2023-02-13T06:56:04;100978.88;;;13.61;47.16
54236;BME280;40151;43.606;1.472;2023-02-13T06:58:33;100979.78;;;13.60;47.23
54236;BME280;40151;43.606;1.472;2023-02-13T07:00:58;100977.16;;;13.60;47.16
54236;BME280;40151;43.606;1.472;2023-02-13T07:03:24;100989.38;;;13.61;47.09
54236;BME280;40151;43.606;1.472;2023-02-13T07:05:49;100985.91;;;13.59;46.99
54236;BME280;40151;43.606;1.472;2023-02-13T07:08:16;100993.78;;;13.59;47.13
54236;BME280;40151;43.606;1.472;2023-02-13T07:10:42;100986.78;;;13.60;47.12
54236;BME280;40151;43.606;1.472;2023-02-13T07:13:08;100991.16;;;13.59;47.09
54236;BME280;40151;43.606;1.472;2023-02-13T07:15:35;100982.38;;;13.60;47.12
54236;BME280;40151;43.606;1.472;2023-02-13T07:18:01;100991.16;;;13.59;47.06
54236;BME280;40151;43.606;1.472;2023-02-13T07:20:27;100995.50;;;13.59;47.21
54236;BME280;40151;43.606;1.472;2023-02-13T07:22:57;100991.16;;;13.59;47.22
54236;BME280;40151;43.606;1.472;2023-02-13T07:25:22;100997.28;;;13.56;47.27
54236;BME280;40151;43.606;1.472;2023-02-13T07:27:48;100999.91;;;13.55;47.10
54236;BME280;40151;43.606;1.472;2023-02-13T07:30:13;101003.41;;;13.57;47.13
54236;BME280;40151;43.606;1.472;2023-02-13T07:32:39;101005.16;;;13.58;47.17
54236;BME280;40151;43.606;1.472;2023-02-13T07:35:04;101009.50;;;13.58;47.18
54236;BME280;40151;43.606;1.472;2023-02-13T07:37:30;101011.28;;;13.55;47.09
54236;BME280;40151;43.606;1.472;2023-02-13T07:39:56;101006.03;;;13.55;47.32
54236;BME280;40151;43.606;1.472;2023-02-13T07:42:21;101011.28;;;13.55;47.11
54236;BME280;40151;43.606;1.472;2023-02-13T07:44:47;101018.25;;;13.58;47.23
54236;BME280;40151;43.606;1.472;2023-02-13T07:47:12;101013.00;;;13.55;47.19
54236;BME280;40151;43.606;1.472;2023-02-13T07:49:38;101013.91;;;13.54;47.05
54236;BME280;40151;43.606;1.472;2023-02-13T07:52:04;101016.53;;;13.54;47.19
54236;BME280;40151;43.606;1.472;2023-02-13T07:54:29;101017.41;;;13.53;47.18
54236;BME280;40151;43.606;1.472;2023-02-13T07:56:55;101015.63;;;13.55;47.28
54236;BME280;40151;43.606;1.472;2023-02-13T07:59:21;101013.91;;;13.57;47.15
54236;BME280;40151;43.606;1.472;2023-02-13T08:01:46;101020.03;;;13.54;47.24
54236;BME280;40151;43.606;1.472;2023-02-13T08:04:12;101022.66;;;13.53;47.37
54236;BME280;40151;43.606;1.472;2023-02-13T08:06:38;101027.91;;;13.54;47.31
54236;BME280;40151;43.606;1.472;2023-02-13T08:09:04;101027.88;;;13.56;47.21
54236;BME280;40151;43.606;1.472;2023-02-13T08:11:48;101018.25;;;13.55;47.27
54236;BME280;40151;43.606;1.472;2023-02-13T08:14:24;101024.44;;;13.51;47.33
54236;BME280;40151;43.606;1.472;2023-02-13T08:16:51;101028.75;;;13.55;47.35
54236;BME280;40151;43.606;1.472;2023-02-13T08:19:17;101020.03;;;13.54;47.34
54236;BME280;40151;43.606;1.472;2023-02-13T08:21:43;101020.03;;;13.53;47.38
54236;BME280;40151;43.606;1.472;2023-02-13T08:24:09;101031.41;;;13.52;47.49
54236;BME280;40151;43.606;1.472;2023-02-13T08:26:35;101037.50;;;13.52;47.36
54236;BME280;40151;43.606;1.472;2023-02-13T08:29:01;101036.66;;;13.52;47.35
54236;BME280;40151;43.606;1.472;2023-02-13T08:31:26;101031.38;;;13.55;47.34
54236;BME280;40151;43.606;1.472;2023-02-13T08:33:52;101041.91;;;13.52;47.51
54236;BME280;40151;43.606;1.472;2023-02-13T08:36:17;101037.50;;;13.52;47.58
54236;BME280;40151;43.606;1.472;2023-02-13T08:38:45;101039.28;;;13.52;47.56
54236;BME280;40151;43.606;1.472;2023-02-13T08:41:11;101039.28;;;13.50;47.54
54236;BME280;40151;43.606;1.472;2023-02-13T08:43:37;101041.88;;;13.55;47.48
54236;BME280;40151;43.606;1.472;2023-02-13T08:46:02;101038.41;;;13.53;47.62
54236;BME280;40151;43.606;1.472;2023-02-13T08:48:28;101039.28;;;13.50;47.74
54236;BME280;40151;43.606;1.472;2023-02-13T08:50:54;101038.41;;;13.53;47.63
54236;BME280;40151;43.606;1.472;2023-02-13T08:53:19;101041.91;;;13.50;47.78
54236;BME280;40151;43.606;1.472;2023-02-13T08:55:55;101044.53;;;13.49;47.89
54236;BME280;40151;43.606;1.472;2023-02-13T08:58:22;101046.25;;;13.50;47.94
54236;BME280;40151;43.606;1.472;2023-02-13T09:00:47;101041.00;;;13.51;47.96
54236;BME280;40151;43.606;1.472;2023-02-13T09:03:13;101041.91;;;13.53;47.94
54236;BME280;40151;43.606;1.472;2023-02-13T09:05:38;101043.63;;;13.50;48.11
54236;BME280;40151;43.606;1.472;2023-02-13T09:08:04;101045.41;;;13.51;47.99
54236;BME280;40151;43.606;1.472;2023-02-13T09:10:30;101044.53;;;13.53;48.01
54236;BME280;40151;43.606;1.472;2023-02-13T09:12:56;101048.88;;;13.53;48.15
54236;BME280;40151;43.606;1.472;2023-02-13T09:15:22;101048.88;;;13.53;48.22
54236;BME280;40151;43.606;1.472;2023-02-13T09:17:47;101046.25;;;13.54;48.20
54236;BME280;40151;43.606;1.472;2023-02-13T09:20:14;101046.25;;;13.54;48.22
54236;BME280;40151;43.606;1.472;2023-02-13T09:22:40;101044.50;;;13.56;48.00
54236;BME280;40151;43.606;1.472;2023-02-13T09:25:06;101039.25;;;13.55;48.26
54236;BME280;40151;43.606;1.472;2023-02-13T09:27:31;101039.25;;;13.60;48.24
54236;BME280;40151;43.606;1.472;2023-02-13T09:29:58;101036.63;;;13.58;47.97
54236;BME280;40151;43.606;1.472;2023-02-13T09:32:23;101041.88;;;13.58;48.28
54236;BME280;40151;43.606;1.472;2023-02-13T09:34:49;101038.38;;;13.59;48.46
54236;BME280;40151;43.606;1.472;2023-02-13T09:37:14;101031.38;;;13.58;48.79
54236;BME280;40151;43.606;1.472;2023-02-13T09:39:40;101029.59;;;13.63;48.37
54236;BME280;40151;43.606;1.472;2023-02-13T09:42:16;101033.97;;;13.63;48.30
54236;BME280;40151;43.606;1.472;2023-02-13T09:44:44;101040.06;;;13.66;48.62
54236;BME280;40151;43.606;1.472;2023-02-13T09:47:36;101041.81;;;13.69;48.65
54236;BME280;40151;43.606;1.472;2023-02-13T09:50:06;101038.28;;;13.72;48.52
54236;BME280;40151;43.606;1.472;2023-02-13T09:52:36;101042.66;;;13.73;48.22
54236;BME280;40151;43.606;1.472;2023-02-13T09:55:12;101040.00;;;13.79;48.35
54236;BME280;40151;43.606;1.472;2023-02-13T09:57:43;101045.25;;;13.79;48.34
54236;BME280;40151;43.606;1.472;2023-02-13T10:00:21;101040.00;;;13.79;48.26
54236;BME280;40151;43.606;1.472;2023-02-13T10:13:33;101034.72;;;13.88;48.29
54236;BME280;40151;43.606;1.472;2023-02-13T10:16:21;101032.09;;;13.90;48.45
54236;BME280;40151;43.606;1.472;2023-02-13T10:21:19;101028.56;;;13.91;48.35
54236;BME280;40151;43.606;1.472;2023-02-13T10:26:20;101024.19;;;13.94;48.25
54236;BME280;40151;43.606;1.472;2023-02-13T10:29:07;101029.38;;;13.99;48.22
54236;BME280;40151;43.606;1.472;2023-02-13T10:31:55;101024.16;;;13.98;48.29
54236;BME280;40151;43.606;1.472;2023-02-13T10:34:25;101023.28;;;13.97;48.36
54236;BME280;40151;43.606;1.472;2023-02-13T10:36:52;101017.16;;;14.00;48.33
54236;BME280;40151;43.606;1.472;2023-02-13T10:41:52;101026.75;;;14.01;48.55
54236;BME280;40151;43.606;1.472;2023-02-13T10:44:51;101022.34;;;14.03;48.42
54236;BME280;40151;43.606;1.472;2023-02-13T10:51:07;101022.31;;;14.09;48.13
54236;BME280;40151;43.606;1.472;2023-02-13T10:57:07;101026.72;;;14.08;48.40
54236;BME280;40151;43.606;1.472;2023-02-13T11:02:31;101010.91;;;14.13;48.12
54236;BME280;40151;43.606;1.472;2023-02-13T11:05:21;101016.16;;;14.13;48.31
54236;BME280;40151;43.606;1.472;2023-02-13T11:07:48;101018.78;;;14.16;48.02
54236;BME280;40151;43.606;1.472;2023-02-13T11:10:24;101008.28;;;14.16;48.04
54236;BME280;40151;43.606;1.472;2023-02-13T11:12:50;101010.03;;;14.17;48.36
54236;BME280;40151;43.606;1.472;2023-02-13T11:15:20;101010.03;;;14.19;48.32
54236;BME280;40151;43.606;1.472;2023-02-13T11:17:48;101008.25;;;14.19;48.15
54236;BME280;40151;43.606;1.472;2023-02-13T11:20:39;101000.34;;;14.22;48.02
54236;BME280;40151;43.606;1.472;2023-02-13T11:23:32;100996.84;;;14.20;48.63
54236;BME280;40151;43.606;1.472;2023-02-13T11:28:55;100994.19;;;14.27;48.14
54236;BME280;40151;43.606;1.472;2023-02-13T11:33:47;100985.44;;;14.28;47.79
54236;BME280;40151;43.606;1.472;2023-02-13T11:36:15;100987.19;;;14.29;48.17
54236;BME280;40151;43.606;1.472;2023-02-13T11:38:41;100980.19;;;14.28;48.52
54236;BME280;40151;43.606;1.472;2023-02-13T11:41:09;100988.91;;;14.28;48.81
54236;BME280;40151;43.606;1.472;2023-02-13T11:43:43;100980.16;;;14.31;48.24
54236;BME280;40151;43.606;1.472;2023-02-13T11:46:22;100987.13;;;14.32;48.50
54236;BME280;40151;43.606;1.472;2023-02-13T11:49:16;100981.00;;;14.34;48.39
54236;BME280;40151;43.606;1.472;2023-02-13T11:51:48;100972.22;;;14.35;48.31
54236;BME280;40151;43.606;1.472;2023-02-13T11:56:55;100974.84;;;14.37;48.16
54236;BME280;40151;43.606;1.472;2023-02-13T11:59:22;100972.22;;;14.39;48.39
54236;BME280;40151;43.606;1.472;2023-02-13T12:02:19;100967.78;;;14.42;48.17
54236;BME280;40151;43.606;1.472;2023-02-13T12:04:46;100971.31;;;14.41;48.29
54236;BME280;40151;43.606;1.472;2023-02-13T12:07:21;100974.81;;;14.40;48.57
54236;BME280;40151;43.606;1.472;2023-02-13T12:09:53;100971.25;;;14.44;48.35
54236;BME280;40151;43.606;1.472;2023-02-13T12:12:26;100964.28;;;14.43;48.31
54236;BME280;40151;43.606;1.472;2023-02-13T12:14:54;100952.03;;;14.45;48.15
54236;BME280;40151;43.606;1.472;2023-02-13T12:17:25;100959.03;;;14.45;48.60
54236;BME280;40151;43.606;1.472;2023-02-13T12:19:52;100958.97;;;14.49;48.17
54236;BME280;40151;43.606;1.472;2023-02-13T12:22:35;100951.97;;;14.48;48.57
54236;BME280;40151;43.606;1.472;2023-02-13T12:25:22;100955.44;;;14.50;48.51
54236;BME280;40151;43.606;1.472;2023-02-13T12:28:09;100945.81;;;14.53;48.26
54236;BME280;40151;43.606;1.472;2023-02-13T12:36:29;100937.03;;;14.55;48.29
54236;BME280;40151;43.606;1.472;2023-02-13T12:47:50;100923.84;;;14.60;48.19
54236;BME280;40151;43.606;1.472;2023-02-13T12:50:34;100930.81;;;14.61;48.22
54236;BME280;40151;43.606;1.472;2023-02-13T12:53:43;100918.56;;;14.63;48.05
54236;BME280;40151;43.606;1.472;2023-02-13T12:56:21;100913.31;;;14.63;48.08
54236;BME280;40151;43.606;1.472;2023-02-13T13:01:25;100918.50;;;14.68;47.99
54236;BME280;40151;43.606;1.472;2023-02-13T13:04:30;100913.25;;;14.66;48.15
54236;BME280;40151;43.606;1.472;2023-02-13T13:22:55;100888.66;;;14.73;47.92
54236;BME280;40151;43.606;1.472;2023-02-13T13:28:10;100883.41;;;14.76;47.89
54236;BME280;40151;43.606;1.472;2023-02-13T13:30:40;100890.41;;;14.77;47.71
54236;BME280;40151;43.606;1.472;2023-02-13T13:33:25;100890.41;;;14.77;47.67
54236;BME280;40151;43.606;1.472;2023-02-13T13:38:50;100883.41;;;14.78;47.94
54236;BME280;40151;43.606;1.472;2023-02-13T13:47:04;100885.13;;;14.81;47.79
54236;BME280;40151;43.606;1.472;2023-02-13T13:49:50;100875.44;;;14.83;47.99
54236;BME280;40151;43.606;1.472;2023-02-13T13:52:31;100874.56;;;14.84;47.82
54236;BME280;40151;43.606;1.472;2023-02-13T13:54:59;100869.28;;;14.84;48.00
54236;BME280;40151;43.606;1.472;2023-02-13T14:00:29;100879.78;;;14.87;47.81
54236;BME280;40151;43.606;1.472;2023-02-13T14:05:32;100877.16;;;14.87;47.69
54236;BME280;40151;43.606;1.472;2023-02-13T14:08:07;100872.75;;;14.87;47.61
54236;BME280;40151;43.606;1.472;2023-02-13T14:13:29;100865.75;;;14.88;47.82
54236;BME280;40151;43.606;1.472;2023-02-13T14:15:55;100866.59;;;14.88;47.66
54236;BME280;40151;43.606;1.472;2023-02-13T14:18:22;100868.34;;;14.89;47.67
54236;BME280;40151;43.606;1.472;2023-02-13T14:28:36;100860.44;;;14.91;47.80
54236;BME280;40151;43.606;1.472;2023-02-13T14:34:01;100858.69;;;14.90;47.81
54236;BME280;40151;43.606;1.472;2023-02-13T14:36:31;100856.94;;;14.92;47.62
54236;BME280;40151;43.606;1.472;2023-02-13T14:39:22;100860.41;;;14.94;47.86
54236;BME280;40151;43.606;1.472;2023-02-13T14:46:47;100858.66;;;14.93;47.87
54236;BME280;40151;43.606;1.472;2023-02-13T14:49:22;100855.16;;;14.94;47.78
54236;BME280;40151;43.606;1.472;2023-02-13T14:51:50;100860.41;;;14.94;47.60
54236;BME280;40151;43.606;1.472;2023-02-13T14:57:30;100860.34;;;14.97;47.67
54236;BME280;40151;43.606;1.472;2023-02-13T15:00:05;100860.34;;;14.97;47.60
54236;BME280;40151;43.606;1.472;2023-02-13T15:02:36;100858.63;;;14.96;47.84
54236;BME280;40151;43.606;1.472;2023-02-13T15:05:09;100862.13;;;14.98;47.83
54236;BME280;40151;43.606;1.472;2023-02-13T15:07:43;100853.34;;;14.99;47.62
54236;BME280;40151;43.606;1.472;2023-02-13T15:13:03;100849.84;;;14.97;47.81
54236;BME280;40151;43.606;1.472;2023-02-13T15:15:32;100848.97;;;14.98;48.03
54236;BME280;40151;43.606;1.472;2023-02-13T15:18:00;100848.06;;;14.99;47.95
54236;BME280;40151;43.606;1.472;2023-02-13T15:20:29;100850.69;;;14.99;47.94
54236;BME280;40151;43.606;1.472;2023-02-13T15:22:57;100840.19;;;14.99;48.14
54236;BME280;40151;43.606;1.472;2023-02-13T15:25:37;100839.28;;;15.00;48.01
54236;BME280;40151;43.606;1.472;2023-02-13T15:28:05;100837.56;;;14.99;48.12
54236;BME280;40151;43.606;1.472;2023-02-13T15:30:35;100837.56;;;14.99;48.05
54236;BME280;40151;43.606;1.472;2023-02-13T15:33:22;100836.59;;;15.03;47.98
54236;BME280;40151;43.606;1.472;2023-02-13T15:36:03;100855.00;;;15.03;47.96
54236;BME280;40151;43.606;1.472;2023-02-13T15:41:04;100846.25;;;15.05;47.92
54236;BME280;40151;43.606;1.472;2023-02-13T15:43:36;100848.00;;;15.04;48.08
54236;BME280;40151;43.606;1.472;2023-02-13T15:46:18;100846.25;;;15.05;47.94